<?xml version="1.0" encoding="UTF-8" standalone="no" ?>
<gpx xmlns="http://www.topografix.com/GPX/1/1" xmlns:xsi="http://www.w3.org/2001/XMLSchema-instance" xsi:schemaLocation="http://www.topografix.com/GPX/1/1 http://www.topografix.com/GPX/1/1/gpx.xsd" version="1.1" creator="VisuGPX - https://www.visugpx.com">
  <metadata>
    <name>Défi Ski de Randonnée La Trace des Arcs</name>
  </metadata>
  <trk>
    <name><![CDATA[Move]]></name>
    <trkseg>
      <trkpt lat="45.59622" lon="6.79445">
        <ele>1628.8000488281</ele>
        <time>2020-12-23T12:34:16.070Z</time>
      </trkpt>
      <trkpt lat="45.59616" lon="6.79445">
        <ele>1635</ele>
        <time>2020-12-23T12:34:21.070Z</time>
      </trkpt>
      <trkpt lat="45.59607" lon="6.79449">
        <ele>1636.0600056319</ele>
        <time>2020-12-23T12:34:30.070Z</time>
      </trkpt>
      <trkpt lat="45.59603" lon="6.79457">
        <ele>1637</ele>
        <time>2020-12-23T12:34:37.070Z</time>
      </trkpt>
      <trkpt lat="45.596" lon="6.79466">
        <ele>1640</ele>
        <time>2020-12-23T12:34:43.070Z</time>
      </trkpt>
      <trkpt lat="45.59596" lon="6.79474">
        <ele>1642</ele>
        <time>2020-12-23T12:34:49.070Z</time>
      </trkpt>
      <trkpt lat="45.5959" lon="6.7948">
        <ele>1644.0600071681</ele>
        <time>2020-12-23T12:34:55.070Z</time>
      </trkpt>
      <trkpt lat="45.59584" lon="6.79487">
        <ele>1647</ele>
        <time>2020-12-23T12:35:02.070Z</time>
      </trkpt>
      <trkpt lat="45.59577" lon="6.79496">
        <ele>1648.530002816</ele>
        <time>2020-12-23T12:35:10.070Z</time>
      </trkpt>
      <trkpt lat="45.59571" lon="6.79502">
        <ele>1649</ele>
        <time>2020-12-23T12:35:17.070Z</time>
      </trkpt>
      <trkpt lat="45.59563" lon="6.79508">
        <ele>1651</ele>
        <time>2020-12-23T12:35:24.070Z</time>
      </trkpt>
      <trkpt lat="45.59558" lon="6.79513">
        <ele>1651</ele>
        <time>2020-12-23T12:35:29.070Z</time>
      </trkpt>
      <trkpt lat="45.59555" lon="6.79519">
        <ele>1653</ele>
        <time>2020-12-23T12:35:34.070Z</time>
      </trkpt>
      <trkpt lat="45.5955" lon="6.79526">
        <ele>1655.1200112639</ele>
        <time>2020-12-23T12:35:40.070Z</time>
      </trkpt>
      <trkpt lat="45.59545" lon="6.79534">
        <ele>1659</ele>
        <time>2020-12-23T12:35:46.070Z</time>
      </trkpt>
      <trkpt lat="45.59539" lon="6.79542">
        <ele>1661</ele>
        <time>2020-12-23T12:35:53.070Z</time>
      </trkpt>
      <trkpt lat="45.59535" lon="6.79548">
        <ele>1661</ele>
        <time>2020-12-23T12:35:58.070Z</time>
      </trkpt>
      <trkpt lat="45.59531" lon="6.79555">
        <ele>1662</ele>
        <time>2020-12-23T12:36:04.070Z</time>
      </trkpt>
      <trkpt lat="45.59526" lon="6.79562">
        <ele>1663.0600056319</ele>
        <time>2020-12-23T12:36:10.070Z</time>
      </trkpt>
      <trkpt lat="45.59524" lon="6.7957">
        <ele>1664</ele>
        <time>2020-12-23T12:36:17.070Z</time>
      </trkpt>
      <trkpt lat="45.59532" lon="6.79581">
        <ele>1669</ele>
        <time>2020-12-23T12:36:29.070Z</time>
      </trkpt>
      <trkpt lat="45.59542" lon="6.79585">
        <ele>1671</ele>
        <time>2020-12-23T12:36:37.070Z</time>
      </trkpt>
      <trkpt lat="45.59549" lon="6.7959">
        <ele>1673</ele>
        <time>2020-12-23T12:36:44.070Z</time>
      </trkpt>
      <trkpt lat="45.59548" lon="6.79599">
        <ele>1674</ele>
        <time>2020-12-23T12:36:51.070Z</time>
      </trkpt>
      <trkpt lat="45.5954" lon="6.796">
        <ele>1674</ele>
        <time>2020-12-23T12:36:56.070Z</time>
      </trkpt>
      <trkpt lat="45.59545" lon="6.79612">
        <ele>1678</ele>
        <time>2020-12-23T12:37:13.070Z</time>
      </trkpt>
      <trkpt lat="45.59539" lon="6.7962">
        <ele>1681</ele>
        <time>2020-12-23T12:37:24.070Z</time>
      </trkpt>
      <trkpt lat="45.59532" lon="6.79618">
        <ele>1682</ele>
        <time>2020-12-23T12:37:29.070Z</time>
      </trkpt>
      <trkpt lat="45.59525" lon="6.79618">
        <ele>1683</ele>
        <time>2020-12-23T12:37:36.070Z</time>
      </trkpt>
      <trkpt lat="45.59519" lon="6.79619">
        <ele>1685</ele>
        <time>2020-12-23T12:37:42.070Z</time>
      </trkpt>
      <trkpt lat="45.59515" lon="6.79625">
        <ele>1688</ele>
        <time>2020-12-23T12:37:54.070Z</time>
      </trkpt>
      <trkpt lat="45.59511" lon="6.79632">
        <ele>1691</ele>
        <time>2020-12-23T12:38:01.070Z</time>
      </trkpt>
      <trkpt lat="45.59506" lon="6.79638">
        <ele>1692</ele>
        <time>2020-12-23T12:38:08.070Z</time>
      </trkpt>
      <trkpt lat="45.59502" lon="6.79646">
        <ele>1693</ele>
        <time>2020-12-23T12:38:13.070Z</time>
      </trkpt>
      <trkpt lat="45.5951" lon="6.79652">
        <ele>1694</ele>
        <time>2020-12-23T12:38:24.070Z</time>
      </trkpt>
      <trkpt lat="45.59517" lon="6.7966">
        <ele>1696</ele>
        <time>2020-12-23T12:38:32.070Z</time>
      </trkpt>
      <trkpt lat="45.59525" lon="6.79667">
        <ele>1698</ele>
        <time>2020-12-23T12:38:41.070Z</time>
      </trkpt>
      <trkpt lat="45.59529" lon="6.79678">
        <ele>1698</ele>
        <time>2020-12-23T12:38:49.070Z</time>
      </trkpt>
      <trkpt lat="45.59527" lon="6.79689">
        <ele>1700</ele>
        <time>2020-12-23T12:38:56.070Z</time>
      </trkpt>
      <trkpt lat="45.59524" lon="6.79699">
        <ele>1703</ele>
        <time>2020-12-23T12:39:03.070Z</time>
      </trkpt>
      <trkpt lat="45.59516" lon="6.79713">
        <ele>1704</ele>
        <time>2020-12-23T12:39:12.070Z</time>
      </trkpt>
      <trkpt lat="45.59506" lon="6.79721">
        <ele>1705.0600056319</ele>
        <time>2020-12-23T12:39:20.070Z</time>
      </trkpt>
      <trkpt lat="45.59499" lon="6.79726">
        <ele>1706</ele>
        <time>2020-12-23T12:39:26.070Z</time>
      </trkpt>
      <trkpt lat="45.59494" lon="6.79731">
        <ele>1707</ele>
        <time>2020-12-23T12:39:32.070Z</time>
      </trkpt>
      <trkpt lat="45.59493" lon="6.79739">
        <ele>1709</ele>
        <time>2020-12-23T12:39:42.070Z</time>
      </trkpt>
      <trkpt lat="45.595" lon="6.79749">
        <ele>1710.0600056319</ele>
        <time>2020-12-23T12:39:50.070Z</time>
      </trkpt>
      <trkpt lat="45.59507" lon="6.79759">
        <ele>1711</ele>
        <time>2020-12-23T12:39:59.070Z</time>
      </trkpt>
      <trkpt lat="45.59514" lon="6.79769">
        <ele>1717</ele>
        <time>2020-12-23T12:40:11.070Z</time>
      </trkpt>
      <trkpt lat="45.59521" lon="6.79779">
        <ele>1717.530002816</ele>
        <time>2020-12-23T12:40:20.070Z</time>
      </trkpt>
      <trkpt lat="45.59528" lon="6.79789">
        <ele>1718</ele>
        <time>2020-12-23T12:40:28.070Z</time>
      </trkpt>
      <trkpt lat="45.59536" lon="6.79799">
        <ele>1720</ele>
        <time>2020-12-23T12:40:35.070Z</time>
      </trkpt>
      <trkpt lat="45.5954" lon="6.79808">
        <ele>1723</ele>
        <time>2020-12-23T12:40:41.070Z</time>
      </trkpt>
      <trkpt lat="45.59541" lon="6.79819">
        <ele>1723</ele>
        <time>2020-12-23T12:40:47.070Z</time>
      </trkpt>
      <trkpt lat="45.59543" lon="6.79828">
        <ele>1725</ele>
        <time>2020-12-23T12:40:54.070Z</time>
      </trkpt>
      <trkpt lat="45.59544" lon="6.79839">
        <ele>1726</ele>
        <time>2020-12-23T12:41:00.070Z</time>
      </trkpt>
      <trkpt lat="45.5954" lon="6.79848">
        <ele>1726</ele>
        <time>2020-12-23T12:41:06.070Z</time>
      </trkpt>
      <trkpt lat="45.59539" lon="6.79858">
        <ele>1728</ele>
        <time>2020-12-23T12:41:13.070Z</time>
      </trkpt>
      <trkpt lat="45.5954" lon="6.79869">
        <ele>1731</ele>
        <time>2020-12-23T12:41:22.070Z</time>
      </trkpt>
      <trkpt lat="45.59544" lon="6.79878">
        <ele>1735</ele>
        <time>2020-12-23T12:41:31.070Z</time>
      </trkpt>
      <trkpt lat="45.59546" lon="6.79888">
        <ele>1736.530002816</ele>
        <time>2020-12-23T12:41:40.070Z</time>
      </trkpt>
      <trkpt lat="45.59548" lon="6.79896">
        <ele>1737</ele>
        <time>2020-12-23T12:41:48.070Z</time>
      </trkpt>
      <trkpt lat="45.59552" lon="6.79904">
        <ele>1739</ele>
        <time>2020-12-23T12:41:54.070Z</time>
      </trkpt>
      <trkpt lat="45.59561" lon="6.79913">
        <ele>1740</ele>
        <time>2020-12-23T12:42:03.070Z</time>
      </trkpt>
      <trkpt lat="45.59569" lon="6.79917">
        <ele>1740</ele>
        <time>2020-12-23T12:42:09.070Z</time>
      </trkpt>
      <trkpt lat="45.59576" lon="6.7992">
        <ele>1741</ele>
        <time>2020-12-23T12:42:15.070Z</time>
      </trkpt>
      <trkpt lat="45.59586" lon="6.79923">
        <ele>1742</ele>
        <time>2020-12-23T12:42:23.070Z</time>
      </trkpt>
      <trkpt lat="45.59596" lon="6.7992">
        <ele>1742</ele>
        <time>2020-12-23T12:42:29.070Z</time>
      </trkpt>
      <trkpt lat="45.59609" lon="6.79916">
        <ele>1744</ele>
        <time>2020-12-23T12:42:37.070Z</time>
      </trkpt>
      <trkpt lat="45.59624" lon="6.79911">
        <ele>1746</ele>
        <time>2020-12-23T12:42:47.070Z</time>
      </trkpt>
      <trkpt lat="45.59632" lon="6.79909">
        <ele>1748</ele>
        <time>2020-12-23T12:42:53.070Z</time>
      </trkpt>
      <trkpt lat="45.5964" lon="6.79909">
        <ele>1748</ele>
        <time>2020-12-23T12:42:58.070Z</time>
      </trkpt>
      <trkpt lat="45.59647" lon="6.79908">
        <ele>1750</ele>
        <time>2020-12-23T12:43:03.070Z</time>
      </trkpt>
      <trkpt lat="45.59657" lon="6.79908">
        <ele>1751</ele>
        <time>2020-12-23T12:43:11.070Z</time>
      </trkpt>
      <trkpt lat="45.59667" lon="6.79911">
        <ele>1751</ele>
        <time>2020-12-23T12:43:17.070Z</time>
      </trkpt>
      <trkpt lat="45.59676" lon="6.79912">
        <ele>1752</ele>
        <time>2020-12-23T12:43:23.070Z</time>
      </trkpt>
      <trkpt lat="45.59685" lon="6.79916">
        <ele>1753.0505016549</ele>
        <time>2020-12-23T12:43:30.070Z</time>
      </trkpt>
      <trkpt lat="45.59694" lon="6.79922">
        <ele>1754</ele>
        <time>2020-12-23T12:43:36.070Z</time>
      </trkpt>
      <trkpt lat="45.59703" lon="6.79929">
        <ele>1756</ele>
        <time>2020-12-23T12:43:43.070Z</time>
      </trkpt>
      <trkpt lat="45.59714" lon="6.79938">
        <ele>1757</ele>
        <time>2020-12-23T12:43:51.070Z</time>
      </trkpt>
      <trkpt lat="45.5972" lon="6.79943">
        <ele>1757</ele>
        <time>2020-12-23T12:43:56.070Z</time>
      </trkpt>
      <trkpt lat="45.59731" lon="6.79954">
        <ele>1759</ele>
        <time>2020-12-23T12:44:04.070Z</time>
      </trkpt>
      <trkpt lat="45.59738" lon="6.79965">
        <ele>1760.0600056319</ele>
        <time>2020-12-23T12:44:10.070Z</time>
      </trkpt>
      <trkpt lat="45.59742" lon="6.79974">
        <ele>1761</ele>
        <time>2020-12-23T12:44:16.070Z</time>
      </trkpt>
      <trkpt lat="45.59746" lon="6.79985">
        <ele>1761</ele>
        <time>2020-12-23T12:44:22.070Z</time>
      </trkpt>
      <trkpt lat="45.59749" lon="6.79995">
        <ele>1761</ele>
        <time>2020-12-23T12:44:27.070Z</time>
      </trkpt>
      <trkpt lat="45.59753" lon="6.80004">
        <ele>1763</ele>
        <time>2020-12-23T12:44:32.070Z</time>
      </trkpt>
      <trkpt lat="45.59758" lon="6.80014">
        <ele>1763</ele>
        <time>2020-12-23T12:44:37.070Z</time>
      </trkpt>
      <trkpt lat="45.59762" lon="6.80023">
        <ele>1765</ele>
        <time>2020-12-23T12:44:42.070Z</time>
      </trkpt>
      <trkpt lat="45.59767" lon="6.80032">
        <ele>1765</ele>
        <time>2020-12-23T12:44:48.070Z</time>
      </trkpt>
      <trkpt lat="45.59775" lon="6.8004">
        <ele>1766</ele>
        <time>2020-12-23T12:44:56.070Z</time>
      </trkpt>
      <trkpt lat="45.59782" lon="6.80046">
        <ele>1767</ele>
        <time>2020-12-23T12:45:01.070Z</time>
      </trkpt>
      <trkpt lat="45.59791" lon="6.80051">
        <ele>1767</ele>
        <time>2020-12-23T12:45:07.070Z</time>
      </trkpt>
      <trkpt lat="45.598" lon="6.80056">
        <ele>1769</ele>
        <time>2020-12-23T12:45:13.070Z</time>
      </trkpt>
      <trkpt lat="45.59808" lon="6.80058">
        <ele>1769</ele>
        <time>2020-12-23T12:45:19.070Z</time>
      </trkpt>
      <trkpt lat="45.59817" lon="6.8006">
        <ele>1771</ele>
        <time>2020-12-23T12:45:26.070Z</time>
      </trkpt>
      <trkpt lat="45.59824" lon="6.80064">
        <ele>1771</ele>
        <time>2020-12-23T12:45:32.070Z</time>
      </trkpt>
      <trkpt lat="45.59831" lon="6.80069">
        <ele>1771</ele>
        <time>2020-12-23T12:45:37.070Z</time>
      </trkpt>
      <trkpt lat="45.59838" lon="6.80076">
        <ele>1773</ele>
        <time>2020-12-23T12:45:43.070Z</time>
      </trkpt>
      <trkpt lat="45.59845" lon="6.80082">
        <ele>1773</ele>
        <time>2020-12-23T12:45:48.070Z</time>
      </trkpt>
      <trkpt lat="45.59851" lon="6.8009">
        <ele>1775</ele>
        <time>2020-12-23T12:45:54.070Z</time>
      </trkpt>
      <trkpt lat="45.59857" lon="6.80098">
        <ele>1775</ele>
        <time>2020-12-23T12:45:59.070Z</time>
      </trkpt>
      <trkpt lat="45.59863" lon="6.80108">
        <ele>1777</ele>
        <time>2020-12-23T12:46:04.070Z</time>
      </trkpt>
      <trkpt lat="45.59869" lon="6.80119">
        <ele>1777</ele>
        <time>2020-12-23T12:46:09.070Z</time>
      </trkpt>
      <trkpt lat="45.59874" lon="6.80132">
        <ele>1778</ele>
        <time>2020-12-23T12:46:15.070Z</time>
      </trkpt>
      <trkpt lat="45.59879" lon="6.80144">
        <ele>1778</ele>
        <time>2020-12-23T12:46:20.070Z</time>
      </trkpt>
      <trkpt lat="45.5988" lon="6.80156">
        <ele>1780</ele>
        <time>2020-12-23T12:46:26.070Z</time>
      </trkpt>
      <trkpt lat="45.59878" lon="6.80168">
        <ele>1781</ele>
        <time>2020-12-23T12:46:32.177Z</time>
      </trkpt>
      <trkpt lat="45.59874" lon="6.80183">
        <ele>1781</ele>
        <time>2020-12-23T12:46:40.070Z</time>
      </trkpt>
      <trkpt lat="45.59865" lon="6.80206">
        <ele>1786</ele>
        <time>2020-12-23T12:46:54.177Z</time>
      </trkpt>
      <trkpt lat="45.59852" lon="6.80215">
        <ele>1790</ele>
        <time>2020-12-23T12:47:03.176Z</time>
      </trkpt>
      <trkpt lat="45.59847" lon="6.80232">
        <ele>1792</ele>
        <time>2020-12-23T12:47:16.070Z</time>
      </trkpt>
      <trkpt lat="45.59836" lon="6.80243">
        <ele>1794</ele>
        <time>2020-12-23T12:47:25.070Z</time>
      </trkpt>
      <trkpt lat="45.59827" lon="6.80259">
        <ele>1799</ele>
        <time>2020-12-23T12:47:39.168Z</time>
      </trkpt>
      <trkpt lat="45.59819" lon="6.80271">
        <ele>1799</ele>
        <time>2020-12-23T12:47:48.165Z</time>
      </trkpt>
      <trkpt lat="45.59802" lon="6.80281">
        <ele>1800</ele>
        <time>2020-12-23T12:47:59.077Z</time>
      </trkpt>
      <trkpt lat="45.59792" lon="6.80275">
        <ele>1801</ele>
        <time>2020-12-23T12:48:07.070Z</time>
      </trkpt>
      <trkpt lat="45.59781" lon="6.80278">
        <ele>1802</ele>
        <time>2020-12-23T12:48:14.062Z</time>
      </trkpt>
      <trkpt lat="45.59762" lon="6.8028">
        <ele>1803</ele>
        <time>2020-12-23T12:48:23.075Z</time>
      </trkpt>
      <trkpt lat="45.59745" lon="6.80281">
        <ele>1804</ele>
        <time>2020-12-23T12:48:34.074Z</time>
      </trkpt>
      <trkpt lat="45.59734" lon="6.8028">
        <ele>1805</ele>
        <time>2020-12-23T12:48:43.066Z</time>
      </trkpt>
      <trkpt lat="45.5972" lon="6.80282">
        <ele>1806.0600071681</ele>
        <time>2020-12-23T12:48:51.070Z</time>
      </trkpt>
      <trkpt lat="45.5971" lon="6.80286">
        <ele>1807</ele>
        <time>2020-12-23T12:49:00.070Z</time>
      </trkpt>
      <trkpt lat="45.59714" lon="6.80301">
        <ele>1810</ele>
        <time>2020-12-23T12:49:14.168Z</time>
      </trkpt>
      <trkpt lat="45.59724" lon="6.8032">
        <ele>1812</ele>
        <time>2020-12-23T12:49:23.166Z</time>
      </trkpt>
      <trkpt lat="45.5973" lon="6.80341">
        <ele>1814</ele>
        <time>2020-12-23T12:49:33.075Z</time>
      </trkpt>
      <trkpt lat="45.59726" lon="6.80354">
        <ele>1814.5300035841</ele>
        <time>2020-12-23T12:49:41.070Z</time>
      </trkpt>
      <trkpt lat="45.59723" lon="6.80376">
        <ele>1815</ele>
        <time>2020-12-23T12:49:48.070Z</time>
      </trkpt>
      <trkpt lat="45.59728" lon="6.80389">
        <ele>1817</ele>
        <time>2020-12-23T12:49:58.171Z</time>
      </trkpt>
      <trkpt lat="45.59736" lon="6.80397">
        <ele>1819</ele>
        <time>2020-12-23T12:50:07.169Z</time>
      </trkpt>
      <trkpt lat="45.59754" lon="6.80408">
        <ele>1820</ele>
        <time>2020-12-23T12:50:16.172Z</time>
      </trkpt>
      <trkpt lat="45.59765" lon="6.80412">
        <ele>1820</ele>
        <time>2020-12-23T12:50:29.168Z</time>
      </trkpt>
      <trkpt lat="45.59738" lon="6.80621">
        <ele>1862</ele>
        <time>2020-12-23T12:53:29.856Z</time>
      </trkpt>
      <trkpt lat="45.59738" lon="6.80644">
        <ele>1864</ele>
        <time>2020-12-23T12:53:46.065Z</time>
      </trkpt>
      <trkpt lat="45.59746" lon="6.80654">
        <ele>1869</ele>
        <time>2020-12-23T12:54:01.070Z</time>
      </trkpt>
      <trkpt lat="45.59744" lon="6.80669">
        <ele>1872</ele>
        <time>2020-12-23T12:54:17.170Z</time>
      </trkpt>
      <trkpt lat="45.59745" lon="6.80683">
        <ele>1874</ele>
        <time>2020-12-23T12:54:34.070Z</time>
      </trkpt>
      <trkpt lat="45.5975" lon="6.80695">
        <ele>1876</ele>
        <time>2020-12-23T12:54:46.170Z</time>
      </trkpt>
      <trkpt lat="45.59754" lon="6.80708">
        <ele>1875</ele>
        <time>2020-12-23T12:54:57.070Z</time>
      </trkpt>
      <trkpt lat="45.59751" lon="6.80724">
        <ele>1876</ele>
        <time>2020-12-23T12:55:09.070Z</time>
      </trkpt>
      <trkpt lat="45.59746" lon="6.80738">
        <ele>1883</ele>
        <time>2020-12-23T12:55:26.173Z</time>
      </trkpt>
      <trkpt lat="45.59745" lon="6.80755">
        <ele>1883</ele>
        <time>2020-12-23T12:55:34.070Z</time>
      </trkpt>
      <trkpt lat="45.59746" lon="6.8077">
        <ele>1883</ele>
        <time>2020-12-23T12:55:42.070Z</time>
      </trkpt>
      <trkpt lat="45.59741" lon="6.8079">
        <ele>1884.0519942655</ele>
        <time>2020-12-23T12:55:51.066Z</time>
      </trkpt>
      <trkpt lat="45.59743" lon="6.80804">
        <ele>1885</ele>
        <time>2020-12-23T12:55:59.070Z</time>
      </trkpt>
      <trkpt lat="45.59747" lon="6.8082">
        <ele>1887</ele>
        <time>2020-12-23T12:56:07.070Z</time>
      </trkpt>
      <trkpt lat="45.59749" lon="6.80838">
        <ele>1888</ele>
        <time>2020-12-23T12:56:19.070Z</time>
      </trkpt>
      <trkpt lat="45.59752" lon="6.80852">
        <ele>1890</ele>
        <time>2020-12-23T12:56:27.070Z</time>
      </trkpt>
      <trkpt lat="45.59757" lon="6.80865">
        <ele>1892</ele>
        <time>2020-12-23T12:56:35.070Z</time>
      </trkpt>
      <trkpt lat="45.59763" lon="6.80885">
        <ele>1894</ele>
        <time>2020-12-23T12:56:43.070Z</time>
      </trkpt>
      <trkpt lat="45.5977" lon="6.80912">
        <ele>1896</ele>
        <time>2020-12-23T12:56:57.070Z</time>
      </trkpt>
      <trkpt lat="45.59778" lon="6.80931">
        <ele>1898</ele>
        <time>2020-12-23T12:57:06.067Z</time>
      </trkpt>
      <trkpt lat="45.59771" lon="6.80941">
        <ele>1899</ele>
        <time>2020-12-23T12:57:14.071Z</time>
      </trkpt>
      <trkpt lat="45.5977" lon="6.8096">
        <ele>1901</ele>
        <time>2020-12-23T12:57:26.167Z</time>
      </trkpt>
      <trkpt lat="45.59778" lon="6.80979">
        <ele>1904</ele>
        <time>2020-12-23T12:57:34.070Z</time>
      </trkpt>
      <trkpt lat="45.59781" lon="6.80993">
        <ele>1907</ele>
        <time>2020-12-23T12:57:42.070Z</time>
      </trkpt>
      <trkpt lat="45.5977" lon="6.81004">
        <ele>1908</ele>
        <time>2020-12-23T12:58:15.064Z</time>
      </trkpt>
      <trkpt lat="45.5977" lon="6.81006">
        <ele>1908</ele>
        <time>2020-12-23T12:58:57.070Z</time>
      </trkpt>
      <trkpt lat="45.59766" lon="6.81004">
        <ele>1908</ele>
        <time>2020-12-23T13:00:23.066Z</time>
      </trkpt>
      <trkpt lat="45.59762" lon="6.81008">
        <ele>1908</ele>
        <time>2020-12-23T13:00:31.067Z</time>
      </trkpt>
      <trkpt lat="45.59751" lon="6.81005">
        <ele>1908</ele>
        <time>2020-12-23T13:00:39.074Z</time>
      </trkpt>
      <trkpt lat="45.59736" lon="6.80997">
        <ele>1914</ele>
        <time>2020-12-23T13:00:58.070Z</time>
      </trkpt>
      <trkpt lat="45.59736" lon="6.81014">
        <ele>1921</ele>
        <time>2020-12-23T13:01:42.070Z</time>
      </trkpt>
      <trkpt lat="45.59729" lon="6.81034">
        <ele>1923</ele>
        <time>2020-12-23T13:01:55.070Z</time>
      </trkpt>
      <trkpt lat="45.59729" lon="6.8106">
        <ele>1925</ele>
        <time>2020-12-23T13:02:07.070Z</time>
      </trkpt>
      <trkpt lat="45.59719" lon="6.81077">
        <ele>1925</ele>
        <time>2020-12-23T13:02:20.072Z</time>
      </trkpt>
      <trkpt lat="45.5971" lon="6.81084">
        <ele>1929</ele>
        <time>2020-12-23T13:02:32.070Z</time>
      </trkpt>
      <trkpt lat="45.59702" lon="6.81077">
        <ele>1932.5300035841</ele>
        <time>2020-12-23T13:03:11.070Z</time>
      </trkpt>
      <trkpt lat="45.59697" lon="6.81094">
        <ele>1935</ele>
        <time>2020-12-23T13:03:24.172Z</time>
      </trkpt>
      <trkpt lat="45.59699" lon="6.81111">
        <ele>1937</ele>
        <time>2020-12-23T13:03:32.070Z</time>
      </trkpt>
      <trkpt lat="45.59694" lon="6.81127">
        <ele>1937</ele>
        <time>2020-12-23T13:03:40.070Z</time>
      </trkpt>
      <trkpt lat="45.59691" lon="6.81139">
        <ele>1938</ele>
        <time>2020-12-23T13:03:45.169Z</time>
      </trkpt>
      <trkpt lat="45.59674" lon="6.81165">
        <ele>1937</ele>
        <time>2020-12-23T13:03:54.173Z</time>
      </trkpt>
      <trkpt lat="45.59678" lon="6.8118">
        <ele>1937</ele>
        <time>2020-12-23T13:03:59.070Z</time>
      </trkpt>
      <trkpt lat="45.59665" lon="6.81177">
        <ele>1939</ele>
        <time>2020-12-23T13:04:07.070Z</time>
      </trkpt>
      <trkpt lat="45.59659" lon="6.81185">
        <ele>1940</ele>
        <time>2020-12-23T13:04:15.171Z</time>
      </trkpt>
      <trkpt lat="45.59653" lon="6.812">
        <ele>1945</ele>
        <time>2020-12-23T13:04:32.070Z</time>
      </trkpt>
      <trkpt lat="45.5965" lon="6.81212">
        <ele>1947</ele>
        <time>2020-12-23T13:04:40.070Z</time>
      </trkpt>
      <trkpt lat="45.59646" lon="6.81234">
        <ele>1950</ele>
        <time>2020-12-23T13:04:54.173Z</time>
      </trkpt>
      <trkpt lat="45.59644" lon="6.81252">
        <ele>1953</ele>
        <time>2020-12-23T13:05:03.168Z</time>
      </trkpt>
      <trkpt lat="45.59635" lon="6.81268">
        <ele>1955</ele>
        <time>2020-12-23T13:05:12.171Z</time>
      </trkpt>
      <trkpt lat="45.59628" lon="6.8128">
        <ele>1958</ele>
        <time>2020-12-23T13:05:21.174Z</time>
      </trkpt>
      <trkpt lat="45.5962" lon="6.81295">
        <ele>1961</ele>
        <time>2020-12-23T13:05:33.070Z</time>
      </trkpt>
      <trkpt lat="45.59617" lon="6.81306">
        <ele>1962.5300035841</ele>
        <time>2020-12-23T13:05:41.070Z</time>
      </trkpt>
      <trkpt lat="45.59611" lon="6.81326">
        <ele>1966</ele>
        <time>2020-12-23T13:05:54.171Z</time>
      </trkpt>
      <trkpt lat="45.59604" lon="6.81341">
        <ele>1970.0600056319</ele>
        <time>2020-12-23T13:06:06.070Z</time>
      </trkpt>
      <trkpt lat="45.59599" lon="6.81351">
        <ele>1971</ele>
        <time>2020-12-23T13:06:15.168Z</time>
      </trkpt>
      <trkpt lat="45.59588" lon="6.81368">
        <ele>1976</ele>
        <time>2020-12-23T13:06:28.070Z</time>
      </trkpt>
      <trkpt lat="45.59579" lon="6.81376">
        <ele>1977.0600056319</ele>
        <time>2020-12-23T13:06:36.070Z</time>
      </trkpt>
      <trkpt lat="45.59565" lon="6.81381">
        <ele>1978</ele>
        <time>2020-12-23T13:06:45.170Z</time>
      </trkpt>
      <trkpt lat="45.59554" lon="6.81381">
        <ele>1980</ele>
        <time>2020-12-23T13:06:54.173Z</time>
      </trkpt>
      <trkpt lat="45.59544" lon="6.81389">
        <ele>1984</ele>
        <time>2020-12-23T13:07:02.070Z</time>
      </trkpt>
      <trkpt lat="45.59535" lon="6.81388">
        <ele>1986</ele>
        <time>2020-12-23T13:07:10.070Z</time>
      </trkpt>
      <trkpt lat="45.59529" lon="6.81387">
        <ele>1986</ele>
        <time>2020-12-23T13:07:15.170Z</time>
      </trkpt>
      <trkpt lat="45.59518" lon="6.81388">
        <ele>1987</ele>
        <time>2020-12-23T13:07:24.172Z</time>
      </trkpt>
      <trkpt lat="45.59505" lon="6.81399">
        <ele>1987</ele>
        <time>2020-12-23T13:07:32.070Z</time>
      </trkpt>
      <trkpt lat="45.59491" lon="6.814">
        <ele>1989</ele>
        <time>2020-12-23T13:07:45.169Z</time>
      </trkpt>
      <trkpt lat="45.59472" lon="6.814">
        <ele>1991</ele>
        <time>2020-12-23T13:07:54.171Z</time>
      </trkpt>
      <trkpt lat="45.59471" lon="6.81416">
        <ele>1992</ele>
        <time>2020-12-23T13:08:02.070Z</time>
      </trkpt>
      <trkpt lat="45.59462" lon="6.81423">
        <ele>1992</ele>
        <time>2020-12-23T13:08:10.070Z</time>
      </trkpt>
      <trkpt lat="45.59454" lon="6.81423">
        <ele>1993</ele>
        <time>2020-12-23T13:08:15.168Z</time>
      </trkpt>
      <trkpt lat="45.59443" lon="6.81412">
        <ele>1995</ele>
        <time>2020-12-23T13:08:28.070Z</time>
      </trkpt>
      <trkpt lat="45.59434" lon="6.81409">
        <ele>1996</ele>
        <time>2020-12-23T13:08:40.070Z</time>
      </trkpt>
      <trkpt lat="45.59422" lon="6.8142">
        <ele>2001</ele>
        <time>2020-12-23T13:08:54.173Z</time>
      </trkpt>
      <trkpt lat="45.59407" lon="6.81425">
        <ele>2004</ele>
        <time>2020-12-23T13:09:02.070Z</time>
      </trkpt>
      <trkpt lat="45.59397" lon="6.81431">
        <ele>2004</ele>
        <time>2020-12-23T13:09:10.070Z</time>
      </trkpt>
      <trkpt lat="45.59391" lon="6.81436">
        <ele>2005</ele>
        <time>2020-12-23T13:09:15.170Z</time>
      </trkpt>
      <trkpt lat="45.59379" lon="6.81438">
        <ele>2006</ele>
        <time>2020-12-23T13:09:24.172Z</time>
      </trkpt>
      <trkpt lat="45.59366" lon="6.8144">
        <ele>2009</ele>
        <time>2020-12-23T13:09:32.070Z</time>
      </trkpt>
      <trkpt lat="45.59357" lon="6.81439">
        <ele>2011</ele>
        <time>2020-12-23T13:09:40.070Z</time>
      </trkpt>
      <trkpt lat="45.59345" lon="6.81439">
        <ele>2012</ele>
        <time>2020-12-23T13:09:49.070Z</time>
      </trkpt>
      <trkpt lat="45.59331" lon="6.8144">
        <ele>2013</ele>
        <time>2020-12-23T13:09:58.070Z</time>
      </trkpt>
      <trkpt lat="45.59319" lon="6.81443">
        <ele>2016</ele>
        <time>2020-12-23T13:10:06.070Z</time>
      </trkpt>
      <trkpt lat="45.59308" lon="6.81436">
        <ele>2017</ele>
        <time>2020-12-23T13:10:15.172Z</time>
      </trkpt>
      <trkpt lat="45.59299" lon="6.81427">
        <ele>2019</ele>
        <time>2020-12-23T13:10:24.172Z</time>
      </trkpt>
      <trkpt lat="45.59289" lon="6.81414">
        <ele>2022.530002816</ele>
        <time>2020-12-23T13:10:36.070Z</time>
      </trkpt>
      <trkpt lat="45.59281" lon="6.81406">
        <ele>2024</ele>
        <time>2020-12-23T13:10:45.164Z</time>
      </trkpt>
      <trkpt lat="45.59272" lon="6.81394">
        <ele>2027</ele>
        <time>2020-12-23T13:10:54.171Z</time>
      </trkpt>
      <trkpt lat="45.59262" lon="6.81384">
        <ele>2031</ele>
        <time>2020-12-23T13:11:07.070Z</time>
      </trkpt>
      <trkpt lat="45.59252" lon="6.81381">
        <ele>2032</ele>
        <time>2020-12-23T13:11:15.165Z</time>
      </trkpt>
      <trkpt lat="45.59243" lon="6.81371">
        <ele>2036</ele>
        <time>2020-12-23T13:11:24.172Z</time>
      </trkpt>
      <trkpt lat="45.59243" lon="6.81356">
        <ele>2038</ele>
        <time>2020-12-23T13:11:32.070Z</time>
      </trkpt>
      <trkpt lat="45.59238" lon="6.81342">
        <ele>2038</ele>
        <time>2020-12-23T13:11:40.070Z</time>
      </trkpt>
      <trkpt lat="45.59233" lon="6.81334">
        <ele>2039</ele>
        <time>2020-12-23T13:11:45.166Z</time>
      </trkpt>
      <trkpt lat="45.59223" lon="6.8133">
        <ele>2041</ele>
        <time>2020-12-23T13:11:54.161Z</time>
      </trkpt>
      <trkpt lat="45.59212" lon="6.81327">
        <ele>2045</ele>
        <time>2020-12-23T13:12:07.070Z</time>
      </trkpt>
      <trkpt lat="45.59193" lon="6.81325">
        <ele>2051</ele>
        <time>2020-12-23T13:12:29.070Z</time>
      </trkpt>
      <trkpt lat="45.59183" lon="6.81332">
        <ele>2054</ele>
        <time>2020-12-23T13:12:37.070Z</time>
      </trkpt>
      <trkpt lat="45.59172" lon="6.81336">
        <ele>2056</ele>
        <time>2020-12-23T13:12:48.070Z</time>
      </trkpt>
      <trkpt lat="45.5916" lon="6.81324">
        <ele>2060.0600071681</ele>
        <time>2020-12-23T13:13:01.070Z</time>
      </trkpt>
      <trkpt lat="45.59152" lon="6.81307">
        <ele>2063</ele>
        <time>2020-12-23T13:13:13.070Z</time>
      </trkpt>
      <trkpt lat="45.59151" lon="6.81288">
        <ele>2066.530002816</ele>
        <time>2020-12-23T13:13:26.070Z</time>
      </trkpt>
      <trkpt lat="45.59155" lon="6.81273">
        <ele>2068</ele>
        <time>2020-12-23T13:13:34.070Z</time>
      </trkpt>
      <trkpt lat="45.59155" lon="6.81262">
        <ele>2069</ele>
        <time>2020-12-23T13:14:15.177Z</time>
      </trkpt>
      <trkpt lat="45.59167" lon="6.81261">
        <ele>2070</ele>
        <time>2020-12-23T13:15:45.170Z</time>
      </trkpt>
      <trkpt lat="45.59197" lon="6.81259">
        <ele>2068</ele>
        <time>2020-12-23T13:15:54.169Z</time>
      </trkpt>
      <trkpt lat="45.59245" lon="6.81297">
        <ele>2050.469997184</ele>
        <time>2020-12-23T13:16:02.070Z</time>
      </trkpt>
      <trkpt lat="45.5929" lon="6.81345">
        <ele>2037</ele>
        <time>2020-12-23T13:16:10.070Z</time>
      </trkpt>
      <trkpt lat="45.5934" lon="6.81377">
        <ele>2028.1070093697</ele>
        <time>2020-12-23T13:16:15.171Z</time>
      </trkpt>
      <trkpt lat="45.59419" lon="6.81377">
        <ele>2015.2579934977</ele>
        <time>2020-12-23T13:16:24.169Z</time>
      </trkpt>
      <trkpt lat="45.59507" lon="6.81333">
        <ele>1993.1009804925</ele>
        <time>2020-12-23T13:16:33.173Z</time>
      </trkpt>
      <trkpt lat="45.59587" lon="6.81288">
        <ele>1981.8299925761</ele>
        <time>2020-12-23T13:16:42.174Z</time>
      </trkpt>
      <trkpt lat="45.59632" lon="6.81184">
        <ele>1963.2319901695</ele>
        <time>2020-12-23T13:16:51.168Z</time>
      </trkpt>
      <trkpt lat="45.59646" lon="6.81081">
        <ele>1944.376017613</ele>
        <time>2020-12-23T13:17:00.852Z</time>
      </trkpt>
      <trkpt lat="45.59659" lon="6.8099">
        <ele>1932</ele>
        <time>2020-12-23T13:17:09.069Z</time>
      </trkpt>
      <trkpt lat="45.59663" lon="6.80882">
        <ele>1915.3449900159</ele>
        <time>2020-12-23T13:17:17.071Z</time>
      </trkpt>
      <trkpt lat="45.59652" lon="6.80767">
        <ele>1907.9460089089</ele>
        <time>2020-12-23T13:17:25.067Z</time>
      </trkpt>
      <trkpt lat="45.59634" lon="6.80662">
        <ele>1894.4190133634</ele>
        <time>2020-12-23T13:17:33.067Z</time>
      </trkpt>
      <trkpt lat="45.59635" lon="6.80575">
        <ele>1878.3950130562</ele>
        <time>2020-12-23T13:17:41.075Z</time>
      </trkpt>
      <trkpt lat="45.59645" lon="6.80506">
        <ele>1863.4129844862</ele>
        <time>2020-12-23T13:17:49.069Z</time>
      </trkpt>
      <trkpt lat="45.59651" lon="6.80438">
        <ele>1851.0800245757</ele>
        <time>2020-12-23T13:17:56.180Z</time>
      </trkpt>
      <trkpt lat="45.59641" lon="6.80356">
        <ele>1831.4099892479</ele>
        <time>2020-12-23T13:18:05.070Z</time>
      </trkpt>
      <trkpt lat="45.59631" lon="6.80268">
        <ele>1818</ele>
        <time>2020-12-23T13:18:13.070Z</time>
      </trkpt>
      <trkpt lat="45.59597" lon="6.80141">
        <ele>1805.4699964159</ele>
        <time>2020-12-23T13:18:23.070Z</time>
      </trkpt>
      <trkpt lat="45.59553" lon="6.80052">
        <ele>1796.4699964159</ele>
        <time>2020-12-23T13:18:31.070Z</time>
      </trkpt>
      <trkpt lat="45.59465" lon="6.80015">
        <ele>1785.469997184</ele>
        <time>2020-12-23T13:18:40.070Z</time>
      </trkpt>
      <trkpt lat="45.59401" lon="6.79984">
        <ele>1777.4663337853</ele>
        <time>2020-12-23T13:18:48.079Z</time>
      </trkpt>
      <trkpt lat="45.59362" lon="6.79955">
        <ele>1775.3669969024</ele>
        <time>2020-12-23T13:18:56.173Z</time>
      </trkpt>
      <trkpt lat="45.59312" lon="6.79923">
        <ele>1768.469997184</ele>
        <time>2020-12-23T13:19:04.070Z</time>
      </trkpt>
      <trkpt lat="45.59335" lon="6.79865">
        <ele>1755.9494983451</ele>
        <time>2020-12-23T13:19:12.070Z</time>
      </trkpt>
      <trkpt lat="45.59391" lon="6.79795">
        <ele>1734.896011469</ele>
        <time>2020-12-23T13:19:21.066Z</time>
      </trkpt>
      <trkpt lat="45.59432" lon="6.79729">
        <ele>1718.9399943681</ele>
        <time>2020-12-23T13:19:28.070Z</time>
      </trkpt>
      <trkpt lat="45.59469" lon="6.79659">
        <ele>1701.8799887361</ele>
        <time>2020-12-23T13:19:36.070Z</time>
      </trkpt>
      <trkpt lat="45.59502" lon="6.79585">
        <ele>1676.4808062785</ele>
        <time>2020-12-23T13:19:45.064Z</time>
      </trkpt>
      <trkpt lat="45.59551" lon="6.79518">
        <ele>1657.9340023552</ele>
        <time>2020-12-23T13:19:53.073Z</time>
      </trkpt>
      <trkpt lat="45.59584" lon="6.79465">
        <ele>1644.9399943681</ele>
        <time>2020-12-23T13:20:00.070Z</time>
      </trkpt>
      <trkpt lat="45.59609" lon="6.79446">
        <ele>1638</ele>
        <time>2020-12-23T13:20:05.070Z</time>
      </trkpt>
    </trkseg>
  </trk>
</gpx>